GHARV FPPR-FGSL
Flight info
| Callsign | GHARV |
|---|---|
| Flight time | 1h 9m |
| Altitude | 2500 |
| Route | DIRECT |
| Aircraft | BE58/L-ICAO/YES |
Departure
| Time | 2026-05-04 18:11 |
|---|---|
| Airport | Principe Airport (FPPR) |
Arrival
| Time | 2026-05-04 19:20 |
|---|---|
| Airport | Malabo International Airport (FGSL) |
| Time | Latitude | Longitude | Altitude | Speed | Heading |
|---|---|---|---|---|---|
| 2026-05-04 17:46 | 1.66605 | 7.41220 | 578 ft | 0 kts | 180° |
| 2026-05-04 18:07 | 1.66592 | 7.41218 | 578 ft | 9 kts | 195° |
| 2026-05-04 18:08 | 1.66510 | 7.41195 | 580 ft | 15 kts | 198° |
| 2026-05-04 18:08 | 1.66483 | 7.41160 | 580 ft | 0 kts | 257° |
| 2026-05-04 18:09 | 1.66477 | 7.41136 | 580 ft | 8 kts | 259° |
| 2026-05-04 18:09 | 1.66452 | 7.41101 | 580 ft | 0 kts | 182° |
| 2026-05-04 18:10 | 1.66337 | 7.41100 | 581 ft | 55 kts | 180° |
| 2026-05-04 18:10 | 1.65788 | 7.41086 | 802 ft | 81 kts | 182° |
| 2026-05-04 18:10 | 1.65120 | 7.41107 | 1070 ft | 102 kts | 161° |
| 2026-05-04 18:11 | 1.64637 | 7.41536 | 1561 ft | 98 kts | 109° |
| 2026-05-04 18:11 | 1.64819 | 7.42264 | 1665 ft | 138 kts | 62° |
| 2026-05-04 18:11 | 1.65474 | 7.43144 | 1592 ft | 169 kts | 51° |
| 2026-05-04 18:11 | 1.66357 | 7.43942 | 1747 ft | 175 kts | 37° |
| 2026-05-04 18:12 | 1.67497 | 7.44500 | 1698 ft | 189 kts | 19° |
| 2026-05-04 18:12 | 1.68827 | 7.44724 | 1588 ft | 199 kts | 5° |
| 2026-05-04 18:12 | 1.70255 | 7.44752 | 1477 ft | 206 kts | 360° |
| 2026-05-04 18:12 | 1.71673 | 7.44935 | 1367 ft | 207 kts | 21° |
| 2026-05-04 18:13 | 1.72864 | 7.45718 | 1369 ft | 201 kts | 42° |
| 2026-05-04 18:13 | 1.74018 | 7.46463 | 1486 ft | 197 kts | 26° |
| 2026-05-04 18:13 | 1.76686 | 7.47295 | 1438 ft | 200 kts | 17° |
| 2026-05-04 18:14 | 1.78018 | 7.47696 | 1480 ft | 199 kts | 20° |
| 2026-05-04 18:14 | 1.79334 | 7.48156 | 1482 ft | 200 kts | 20° |
| 2026-05-04 18:14 | 1.80663 | 7.48618 | 1480 ft | 200 kts | 20° |
| 2026-05-04 18:15 | 1.83281 | 7.49620 | 1481 ft | 200 kts | 25° |
| 2026-05-04 18:15 | 1.85858 | 7.50732 | 1480 ft | 201 kts | 25° |
| 2026-05-04 18:15 | 1.87136 | 7.51288 | 1479 ft | 201 kts | 25° |
| 2026-05-04 18:16 | 1.88432 | 7.51851 | 1479 ft | 201 kts | 25° |
| 2026-05-04 18:16 | 1.89713 | 7.52413 | 1478 ft | 200 kts | 27° |
| 2026-05-04 18:16 | 1.90944 | 7.53070 | 1481 ft | 200 kts | 30° |
| 2026-05-04 18:17 | 1.93394 | 7.54416 | 1479 ft | 200 kts | 31° |
| 2026-05-04 18:17 | 1.94618 | 7.55091 | 1481 ft | 200 kts | 30° |
| 2026-05-04 18:17 | 1.97053 | 7.56437 | 1481 ft | 199 kts | 31° |
| 2026-05-04 18:18 | 1.98264 | 7.57105 | 1480 ft | 198 kts | 30° |
| 2026-05-04 18:18 | 1.99467 | 7.57770 | 1480 ft | 197 kts | 31° |
| 2026-05-04 18:18 | 2.00676 | 7.58440 | 1480 ft | 196 kts | 31° |
| 2026-05-04 18:18 | 2.01858 | 7.59096 | 1481 ft | 195 kts | 31° |
| 2026-05-04 18:19 | 2.04246 | 7.60425 | 1481 ft | 194 kts | 31° |
| 2026-05-04 18:19 | 2.05421 | 7.61083 | 1480 ft | 194 kts | 31° |
| 2026-05-04 18:19 | 2.06594 | 7.61744 | 1478 ft | 193 kts | 31° |
| 2026-05-04 18:20 | 2.07767 | 7.62409 | 1479 ft | 193 kts | 31° |
| 2026-05-04 18:20 | 2.08949 | 7.63082 | 1480 ft | 193 kts | 31° |
| 2026-05-04 18:20 | 2.10114 | 7.63749 | 1481 ft | 193 kts | 31° |
| 2026-05-04 18:20 | 2.11285 | 7.64417 | 1484 ft | 193 kts | 31° |
| 2026-05-04 18:21 | 2.12449 | 7.65084 | 1487 ft | 193 kts | 31° |
| 2026-05-04 18:21 | 2.13628 | 7.65761 | 1490 ft | 193 kts | 31° |
| 2026-05-04 18:21 | 2.14795 | 7.66433 | 1489 ft | 193 kts | 31° |
| 2026-05-04 18:21 | 2.15962 | 7.67106 | 1486 ft | 193 kts | 32° |
| 2026-05-04 18:22 | 2.17128 | 7.67779 | 1485 ft | 194 kts | 31° |
| 2026-05-04 18:22 | 2.18297 | 7.68450 | 1486 ft | 194 kts | 31° |
| 2026-05-04 18:22 | 2.19473 | 7.69127 | 1488 ft | 194 kts | 31° |
| 2026-05-04 18:22 | 2.20652 | 7.69806 | 1486 ft | 194 kts | 32° |
| 2026-05-04 18:23 | 2.21819 | 7.70478 | 1484 ft | 194 kts | 32° |
| 2026-05-04 18:23 | 2.22995 | 7.71154 | 1480 ft | 194 kts | 32° |
| 2026-05-04 18:23 | 2.24161 | 7.71831 | 1482 ft | 193 kts | 32° |
| 2026-05-04 18:23 | 2.25330 | 7.72513 | 1483 ft | 193 kts | 31° |
| 2026-05-04 18:24 | 2.26486 | 7.73188 | 1485 ft | 191 kts | 31° |
| 2026-05-04 18:24 | 2.27627 | 7.73862 | 1481 ft | 189 kts | 32° |
| 2026-05-04 18:24 | 2.28762 | 7.74531 | 1482 ft | 188 kts | 32° |
| 2026-05-04 18:24 | 2.29890 | 7.75198 | 1479 ft | 187 kts | 32° |
| 2026-05-04 18:25 | 2.31013 | 7.75865 | 1480 ft | 183 kts | 32° |
| 2026-05-04 18:25 | 2.32092 | 7.76507 | 1477 ft | 177 kts | 32° |
| 2026-05-04 18:25 | 2.33133 | 7.77127 | 1479 ft | 173 kts | 32° |
| 2026-05-04 18:25 | 2.34177 | 7.77743 | 1479 ft | 170 kts | 32° |
| 2026-05-04 18:26 | 2.35189 | 7.78337 | 1480 ft | 169 kts | 32° |
| 2026-05-04 18:26 | 2.36206 | 7.78931 | 1480 ft | 168 kts | 32° |
| 2026-05-04 18:26 | 2.37221 | 7.79527 | 1479 ft | 167 kts | 32° |
| 2026-05-04 18:26 | 2.38220 | 7.80117 | 1479 ft | 167 kts | 32° |
| 2026-05-04 18:27 | 2.39227 | 7.80718 | 1480 ft | 167 kts | 32° |
| 2026-05-04 18:27 | 2.40218 | 7.81312 | 1479 ft | 166 kts | 32° |
| 2026-05-04 18:27 | 2.41220 | 7.81914 | 1479 ft | 166 kts | 32° |
| 2026-05-04 18:27 | 2.42212 | 7.82514 | 1480 ft | 166 kts | 32° |
| 2026-05-04 18:28 | 2.43208 | 7.83115 | 1481 ft | 166 kts | 33° |
| 2026-05-04 18:28 | 2.44204 | 7.83721 | 1481 ft | 166 kts | 33° |
| 2026-05-04 18:28 | 2.45187 | 7.84324 | 1481 ft | 166 kts | 33° |
| 2026-05-04 18:28 | 2.46182 | 7.84931 | 1481 ft | 167 kts | 32° |
| 2026-05-04 18:29 | 2.47189 | 7.85544 | 1481 ft | 167 kts | 33° |
| 2026-05-04 18:29 | 2.48173 | 7.86145 | 1481 ft | 167 kts | 33° |
| 2026-05-04 18:29 | 2.49181 | 7.86758 | 1481 ft | 167 kts | 33° |
| 2026-05-04 18:29 | 2.50178 | 7.87366 | 1480 ft | 167 kts | 33° |
| 2026-05-04 18:30 | 2.52153 | 7.88571 | 1480 ft | 166 kts | 33° |
| 2026-05-04 18:30 | 2.53149 | 7.89180 | 1481 ft | 166 kts | 33° |
| 2026-05-04 18:30 | 2.54137 | 7.89787 | 1478 ft | 166 kts | 33° |
| 2026-05-04 18:31 | 2.55122 | 7.90397 | 1479 ft | 166 kts | 33° |
| 2026-05-04 18:31 | 2.56105 | 7.91010 | 1479 ft | 166 kts | 33° |
| 2026-05-04 18:31 | 2.57100 | 7.91633 | 1480 ft | 166 kts | 33° |
| 2026-05-04 18:31 | 2.58077 | 7.92246 | 1481 ft | 166 kts | 33° |
| 2026-05-04 18:32 | 2.59065 | 7.92866 | 1481 ft | 167 kts | 33° |
| 2026-05-04 18:32 | 2.60045 | 7.93484 | 1481 ft | 167 kts | 33° |
| 2026-05-04 18:32 | 2.61038 | 7.94111 | 1480 ft | 166 kts | 33° |
| 2026-05-04 18:32 | 2.62022 | 7.94732 | 1480 ft | 166 kts | 34° |
| 2026-05-04 18:33 | 2.63001 | 7.95342 | 1481 ft | 166 kts | 34° |
| 2026-05-04 18:33 | 2.63993 | 7.95959 | 1481 ft | 166 kts | 33° |
| 2026-05-04 18:33 | 2.64975 | 7.96572 | 1480 ft | 166 kts | 33° |
| 2026-05-04 18:33 | 2.65969 | 7.97192 | 1480 ft | 167 kts | 34° |
| 2026-05-04 18:34 | 2.66956 | 7.97811 | 1481 ft | 167 kts | 34° |
| 2026-05-04 18:34 | 2.67933 | 7.98430 | 1481 ft | 167 kts | 34° |
| 2026-05-04 18:34 | 2.68927 | 7.99062 | 1481 ft | 167 kts | 34° |
| 2026-05-04 18:34 | 2.69918 | 7.99695 | 1481 ft | 168 kts | 34° |
| 2026-05-04 18:35 | 2.70901 | 8.00325 | 1481 ft | 168 kts | 34° |
| 2026-05-04 18:35 | 2.71889 | 8.00960 | 1481 ft | 167 kts | 34° |
| 2026-05-04 18:35 | 2.72865 | 8.01590 | 1482 ft | 167 kts | 34° |
| 2026-05-04 18:35 | 2.73848 | 8.02229 | 1482 ft | 167 kts | 34° |
| 2026-05-04 18:36 | 2.74822 | 8.02863 | 1482 ft | 167 kts | 34° |
| 2026-05-04 18:36 | 2.75799 | 8.03499 | 1481 ft | 167 kts | 34° |
| 2026-05-04 18:36 | 2.76783 | 8.04140 | 1481 ft | 167 kts | 34° |
| 2026-05-04 18:36 | 2.77764 | 8.04776 | 1482 ft | 167 kts | 34° |
| 2026-05-04 18:37 | 2.78741 | 8.05410 | 1480 ft | 167 kts | 34° |
| 2026-05-04 18:37 | 2.79711 | 8.06040 | 1478 ft | 166 kts | 34° |
| 2026-05-04 18:37 | 2.80688 | 8.06678 | 1480 ft | 166 kts | 34° |
| 2026-05-04 18:37 | 2.81650 | 8.07307 | 1480 ft | 166 kts | 34° |
| 2026-05-04 18:38 | 2.82621 | 8.07946 | 1474 ft | 166 kts | 35° |
| 2026-05-04 18:38 | 2.83590 | 8.08589 | 1478 ft | 166 kts | 35° |
| 2026-05-04 18:38 | 2.84573 | 8.09241 | 1475 ft | 167 kts | 34° |
| 2026-05-04 18:38 | 2.85537 | 8.09883 | 1470 ft | 167 kts | 35° |
| 2026-05-04 18:39 | 2.86508 | 8.10531 | 1467 ft | 167 kts | 35° |
| 2026-05-04 18:39 | 2.87479 | 8.11182 | 1463 ft | 167 kts | 35° |
| 2026-05-04 18:39 | 2.88451 | 8.11832 | 1459 ft | 167 kts | 36° |
| 2026-05-04 18:39 | 2.89423 | 8.12479 | 1460 ft | 167 kts | 35° |
| 2026-05-04 18:40 | 2.90388 | 8.13121 | 1461 ft | 166 kts | 35° |
| 2026-05-04 18:40 | 2.91358 | 8.13768 | 1460 ft | 166 kts | 35° |
| 2026-05-04 18:40 | 2.92329 | 8.14416 | 1460 ft | 166 kts | 35° |
| 2026-05-04 18:40 | 2.93293 | 8.15061 | 1460 ft | 166 kts | 35° |
| 2026-05-04 18:41 | 2.94250 | 8.15709 | 1461 ft | 167 kts | 35° |
| 2026-05-04 18:41 | 2.95223 | 8.16372 | 1461 ft | 167 kts | 35° |
| 2026-05-04 18:41 | 2.96175 | 8.17027 | 1460 ft | 167 kts | 36° |
| 2026-05-04 18:41 | 2.97145 | 8.17693 | 1460 ft | 167 kts | 36° |
| 2026-05-04 18:42 | 2.98115 | 8.18357 | 1462 ft | 167 kts | 36° |
| 2026-05-04 18:42 | 2.99047 | 8.19042 | 1453 ft | 167 kts | 46° |
| 2026-05-04 18:42 | 2.99562 | 8.20098 | 1246 ft | 175 kts | 82° |
| 2026-05-04 18:42 | 2.99620 | 8.21258 | 1444 ft | 157 kts | 94° |
| 2026-05-04 18:43 | 2.99691 | 8.22291 | 1652 ft | 147 kts | 75° |
| 2026-05-04 18:43 | 3.00158 | 8.23282 | 1394 ft | 169 kts | 65° |
| 2026-05-04 18:43 | 3.00692 | 8.24320 | 1460 ft | 166 kts | 63° |
| 2026-05-04 18:43 | 3.01238 | 8.25322 | 1733 ft | 162 kts | 62° |
| 2026-05-04 18:44 | 3.01791 | 8.26291 | 2070 ft | 160 kts | 60° |
| 2026-05-04 18:44 | 3.01986 | 8.26613 | 2126 ft | 164 kts | 60° |
| 2026-05-04 18:44 | 3.02780 | 8.28416 | 2467 ft | 169 kts | 69° |
| 2026-05-04 18:44 | 3.03285 | 8.29462 | 2755 ft | 168 kts | 62° |
| 2026-05-04 18:45 | 3.03452 | 8.29770 | 2820 ft | 169 kts | 61° |
| 2026-05-04 18:45 | 3.03737 | 8.30275 | 3094 ft | 167 kts | 60° |
| 2026-05-04 18:45 | 3.04180 | 8.31029 | 3315 ft | 166 kts | 59° |
| 2026-05-04 18:45 | 3.04765 | 8.32029 | 3574 ft | 167 kts | 59° |
| 2026-05-04 18:46 | 3.05375 | 8.33033 | 3768 ft | 171 kts | 59° |
| 2026-05-04 18:46 | 3.05972 | 8.34062 | 3963 ft | 172 kts | 61° |
| 2026-05-04 18:46 | 3.06551 | 8.35121 | 4146 ft | 174 kts | 60° |
| 2026-05-04 18:46 | 3.07176 | 8.36156 | 4353 ft | 173 kts | 56° |
| 2026-05-04 18:47 | 3.07920 | 8.37113 | 4526 ft | 175 kts | 50° |
| 2026-05-04 18:47 | 3.08605 | 8.38125 | 4688 ft | 176 kts | 60° |
| 2026-05-04 18:47 | 3.09242 | 8.39186 | 4847 ft | 177 kts | 57° |
| 2026-05-04 18:47 | 3.09904 | 8.40229 | 4972 ft | 179 kts | 58° |
| 2026-05-04 18:48 | 3.10603 | 8.41253 | 5101 ft | 180 kts | 54° |
| 2026-05-04 18:48 | 3.11331 | 8.42315 | 5165 ft | 184 kts | 58° |
| 2026-05-04 18:48 | 3.12001 | 8.43375 | 5324 ft | 181 kts | 56° |
| 2026-05-04 18:48 | 3.12732 | 8.44403 | 5441 ft | 182 kts | 54° |
| 2026-05-04 18:49 | 3.13431 | 8.45489 | 5515 ft | 184 kts | 62° |
| 2026-05-04 18:49 | 3.13929 | 8.46666 | 5624 ft | 183 kts | 71° |
| 2026-05-04 18:49 | 3.14255 | 8.47887 | 5746 ft | 183 kts | 78° |
| 2026-05-04 18:49 | 3.14486 | 8.49146 | 5840 ft | 184 kts | 80° |
| 2026-05-04 18:50 | 3.14793 | 8.50399 | 5858 ft | 188 kts | 72° |
| 2026-05-04 18:50 | 3.15259 | 8.51607 | 5832 ft | 188 kts | 65° |
| 2026-05-04 18:50 | 3.15880 | 8.52764 | 5819 ft | 187 kts | 58° |
| 2026-05-04 18:50 | 3.16596 | 8.53862 | 5815 ft | 188 kts | 58° |
| 2026-05-04 18:51 | 3.17204 | 8.55011 | 5689 ft | 189 kts | 66° |
| 2026-05-04 18:51 | 3.17628 | 8.56257 | 5423 ft | 189 kts | 74° |
| 2026-05-04 18:51 | 3.17953 | 8.57524 | 5107 ft | 189 kts | 76° |
| 2026-05-04 18:51 | 3.18225 | 8.58810 | 4852 ft | 187 kts | 79° |
| 2026-05-04 18:52 | 3.18461 | 8.60092 | 4638 ft | 187 kts | 76° |
| 2026-05-04 18:52 | 3.18824 | 8.61326 | 4390 ft | 187 kts | 71° |
| 2026-05-04 18:52 | 3.19252 | 8.62552 | 4142 ft | 186 kts | 71° |
| 2026-05-04 18:52 | 3.19609 | 8.63804 | 3899 ft | 186 kts | 78° |
| 2026-05-04 18:53 | 3.19736 | 8.65082 | 3660 ft | 186 kts | 89° |
| 2026-05-04 18:53 | 3.19793 | 8.66380 | 3460 ft | 186 kts | 80° |
| 2026-05-04 18:53 | 3.20242 | 8.67523 | 3692 ft | 173 kts | 57° |
| 2026-05-04 18:53 | 3.20987 | 8.68493 | 3670 ft | 182 kts | 53° |
| 2026-05-04 18:54 | 3.21739 | 8.69538 | 3463 ft | 185 kts | 53° |
| 2026-05-04 18:54 | 3.22628 | 8.70462 | 3345 ft | 184 kts | 40° |
| 2026-05-04 18:54 | 3.23680 | 8.71203 | 3270 ft | 183 kts | 31° |
| 2026-05-04 18:54 | 3.24784 | 8.71845 | 3232 ft | 182 kts | 32° |
| 2026-05-04 18:55 | 3.25812 | 8.72607 | 3192 ft | 183 kts | 40° |
| 2026-05-04 18:55 | 3.27548 | 8.74467 | 3142 ft | 182 kts | 51° |
| 2026-05-04 18:55 | 3.28365 | 8.75426 | 3123 ft | 182 kts | 44° |
| 2026-05-04 18:56 | 3.29388 | 8.76198 | 3071 ft | 183 kts | 33° |
| 2026-05-04 18:56 | 3.30464 | 8.76866 | 3068 ft | 182 kts | 32° |
| 2026-05-04 18:56 | 3.31532 | 8.77560 | 3076 ft | 182 kts | 34° |
| 2026-05-04 18:56 | 3.32586 | 8.78267 | 3082 ft | 182 kts | 33° |
| 2026-05-04 18:57 | 3.33665 | 8.78926 | 3087 ft | 182 kts | 29° |
| 2026-05-04 18:57 | 3.34809 | 8.79484 | 3086 ft | 182 kts | 23° |
| 2026-05-04 18:57 | 3.35997 | 8.79913 | 3084 ft | 182 kts | 17° |
| 2026-05-04 18:57 | 3.37223 | 8.80293 | 3090 ft | 182 kts | 18° |
| 2026-05-04 18:58 | 3.38433 | 8.80670 | 3099 ft | 181 kts | 16° |
| 2026-05-04 18:58 | 3.39641 | 8.81074 | 3096 ft | 182 kts | 23° |
| 2026-05-04 18:58 | 3.40793 | 8.81583 | 3175 ft | 179 kts | 24° |
| 2026-05-04 18:58 | 3.41933 | 8.82105 | 3243 ft | 181 kts | 28° |
| 2026-05-04 18:59 | 3.43027 | 8.82744 | 3272 ft | 181 kts | 32° |
| 2026-05-04 18:59 | 3.44071 | 8.83456 | 3320 ft | 181 kts | 34° |
| 2026-05-04 18:59 | 3.45147 | 8.84121 | 3316 ft | 182 kts | 28° |
| 2026-05-04 18:59 | 3.46311 | 8.84645 | 3289 ft | 182 kts | 21° |
| 2026-05-04 19:00 | 3.47505 | 8.85049 | 3274 ft | 182 kts | 17° |
| 2026-05-04 19:00 | 3.48717 | 8.85428 | 3270 ft | 182 kts | 18° |
| 2026-05-04 19:00 | 3.49926 | 8.85849 | 3266 ft | 182 kts | 21° |
| 2026-05-04 19:00 | 3.51098 | 8.86343 | 3261 ft | 182 kts | 25° |
| 2026-05-04 19:01 | 3.52240 | 8.86890 | 3258 ft | 182 kts | 25° |
| 2026-05-04 19:01 | 3.53386 | 8.87441 | 3261 ft | 182 kts | 27° |
| 2026-05-04 19:01 | 3.54515 | 8.88042 | 3262 ft | 182 kts | 30° |
| 2026-05-04 19:01 | 3.55533 | 8.88800 | 3226 ft | 183 kts | 43° |
| 2026-05-04 19:02 | 3.56475 | 8.89645 | 3195 ft | 182 kts | 37° |
| 2026-05-04 19:02 | 3.57541 | 8.90363 | 3188 ft | 182 kts | 32° |
| 2026-05-04 19:02 | 3.58637 | 8.91000 | 3201 ft | 181 kts | 30° |
| 2026-05-04 19:02 | 3.59691 | 8.91691 | 3207 ft | 182 kts | 35° |
| 2026-05-04 19:03 | 3.60776 | 8.92362 | 3213 ft | 182 kts | 29° |
| 2026-05-04 19:03 | 3.61902 | 8.92942 | 3224 ft | 181 kts | 26° |
| 2026-05-04 19:03 | 3.63071 | 8.93439 | 3233 ft | 182 kts | 19° |
| 2026-05-04 19:03 | 3.64299 | 8.93755 | 3228 ft | 182 kts | 11° |
| 2026-05-04 19:04 | 3.65540 | 8.94001 | 3231 ft | 182 kts | 14° |
| 2026-05-04 19:04 | 3.66756 | 8.94401 | 3228 ft | 182 kts | 22° |
| 2026-05-04 19:04 | 3.67868 | 8.94996 | 3205 ft | 183 kts | 36° |
| 2026-05-04 19:04 | 3.68767 | 8.95913 | 3110 ft | 184 kts | 50° |
| 2026-05-04 19:05 | 3.69749 | 8.96705 | 3126 ft | 182 kts | 25° |
| 2026-05-04 19:05 | 3.70991 | 8.96878 | 3015 ft | 184 kts | 351° |
| 2026-05-04 19:05 | 3.72173 | 8.96371 | 2993 ft | 182 kts | 327° |
| 2026-05-04 19:05 | 3.73171 | 8.95601 | 3034 ft | 181 kts | 319° |
| 2026-05-04 19:06 | 3.74092 | 8.94739 | 3073 ft | 181 kts | 317° |
| 2026-05-04 19:06 | 3.75024 | 8.93902 | 3110 ft | 181 kts | 318° |
| 2026-05-04 19:06 | 3.75978 | 8.93070 | 3147 ft | 181 kts | 319° |
| 2026-05-04 19:06 | 3.76931 | 8.92234 | 3181 ft | 181 kts | 316° |
| 2026-05-04 19:07 | 3.77747 | 8.91285 | 3174 ft | 181 kts | 302° |
| 2026-05-04 19:07 | 3.78269 | 8.90125 | 2940 ft | 181 kts | 289° |
| 2026-05-04 19:07 | 3.78755 | 8.88955 | 2515 ft | 185 kts | 297° |
| 2026-05-04 19:07 | 3.79541 | 8.87931 | 2128 ft | 185 kts | 314° |
| 2026-05-04 19:08 | 3.80320 | 8.87009 | 2336 ft | 164 kts | 301° |
| 2026-05-04 19:08 | 3.80892 | 8.86047 | 2323 ft | 170 kts | 302° |
| 2026-05-04 19:08 | 3.81661 | 8.85054 | 2020 ft | 183 kts | 306° |
| 2026-05-04 19:08 | 3.82254 | 8.84009 | 2252 ft | 166 kts | 292° |
| 2026-05-04 19:09 | 3.82594 | 8.82883 | 2201 ft | 171 kts | 283° |
| 2026-05-04 19:09 | 3.82932 | 8.81784 | 2425 ft | 158 kts | 290° |
| 2026-05-04 19:09 | 3.83266 | 8.80754 | 2468 ft | 157 kts | 284° |
| 2026-05-04 19:09 | 3.83523 | 8.79671 | 2378 ft | 159 kts | 283° |
| 2026-05-04 19:10 | 3.83590 | 8.78621 | 2468 ft | 144 kts | 259° |
| 2026-05-04 19:10 | 3.83218 | 8.77717 | 2055 ft | 145 kts | 237° |
| 2026-05-04 19:10 | 3.82545 | 8.76955 | 1461 ft | 146 kts | 223° |
| 2026-05-04 19:10 | 3.81815 | 8.76319 | 1153 ft | 134 kts | 218° |
| 2026-05-04 19:11 | 3.81082 | 8.75769 | 847 ft | 131 kts | 216° |
| 2026-05-04 19:11 | 3.80354 | 8.75220 | 517 ft | 131 kts | 220° |
| 2026-05-04 19:11 | 3.79691 | 8.74591 | 489 ft | 130 kts | 225° |
| 2026-05-04 19:11 | 3.79036 | 8.73978 | 541 ft | 126 kts | 219° |
| 2026-05-04 19:12 | 3.78344 | 8.73429 | 554 ft | 126 kts | 219° |
| 2026-05-04 19:12 | 3.77064 | 8.72326 | 664 ft | 123 kts | 202° |
| 2026-05-04 19:12 | 3.76288 | 8.72413 | 1254 ft | 111 kts | 143° |
| 2026-05-04 19:13 | 3.75937 | 8.73130 | 1547 ft | 132 kts | 92° |
| 2026-05-04 19:13 | 3.76181 | 8.74123 | 1581 ft | 159 kts | 63° |
| 2026-05-04 19:13 | 3.76824 | 8.75028 | 1717 ft | 165 kts | 50° |
| 2026-05-04 19:13 | 3.77597 | 8.75912 | 1726 ft | 170 kts | 47° |
| 2026-05-04 19:14 | 3.78462 | 8.76731 | 1752 ft | 171 kts | 41° |
| 2026-05-04 19:14 | 3.79348 | 8.77556 | 1743 ft | 174 kts | 44° |
| 2026-05-04 19:14 | 3.80232 | 8.78401 | 1728 ft | 176 kts | 43° |
| 2026-05-04 19:14 | 3.81144 | 8.79206 | 1699 ft | 175 kts | 41° |
| 2026-05-04 19:15 | 3.82067 | 8.80011 | 1625 ft | 175 kts | 41° |
| 2026-05-04 19:15 | 3.83129 | 8.80531 | 1731 ft | 165 kts | 4° |
| 2026-05-04 19:15 | 3.84126 | 8.80157 | 1953 ft | 155 kts | 312° |
| 2026-05-04 19:15 | 3.84517 | 8.79136 | 1866 ft | 165 kts | 273° |
| 2026-05-04 19:16 | 3.84156 | 8.78061 | 1789 ft | 167 kts | 230° |
| 2026-05-04 19:16 | 3.83270 | 8.77295 | 1422 ft | 168 kts | 218° |
| 2026-05-04 19:16 | 3.82427 | 8.76672 | 1371 ft | 136 kts | 217° |
| 2026-05-04 19:16 | 3.81752 | 8.76192 | 1182 ft | 101 kts | 213° |
| 2026-05-04 19:17 | 3.81228 | 8.75838 | 977 ft | 84 kts | 213° |
| 2026-05-04 19:17 | 3.80757 | 8.75522 | 729 ft | 82 kts | 215° |
| 2026-05-04 19:17 | 3.80296 | 8.75181 | 581 ft | 84 kts | 219° |
| 2026-05-04 19:17 | 3.79863 | 8.74777 | 440 ft | 84 kts | 220° |
| 2026-05-04 19:18 | 3.79427 | 8.74393 | 330 ft | 82 kts | 220° |
| 2026-05-04 19:18 | 3.79007 | 8.73999 | 284 ft | 85 kts | 223° |
| 2026-05-04 19:18 | 3.78542 | 8.73631 | 464 ft | 86 kts | 215° |
| 2026-05-04 19:18 | 3.78033 | 8.73250 | 531 ft | 96 kts | 222° |
| 2026-05-04 19:19 | 3.77560 | 8.72735 | 491 ft | 96 kts | 227° |
| 2026-05-04 19:19 | 3.77110 | 8.72282 | 351 ft | 89 kts | 220° |
| 2026-05-04 19:19 | 3.76649 | 8.71884 | 177 ft | 85 kts | 221° |
| 2026-05-04 19:19 | 3.76228 | 8.71507 | 71 ft | 72 kts | 221° |
| 2026-05-04 19:20 | 3.75922 | 8.71228 | 85 ft | 47 kts | 220° |
| 2026-05-04 19:20 | 3.75723 | 8.71049 | 94 ft | 30 kts | 223° |
| 2026-05-04 19:20 | 3.75586 | 8.71040 | 92 ft | 20 kts | 132° |
| 2026-05-04 19:20 | 3.75576 | 8.71051 | 91 ft | 0 kts | 129° |
| 2026-05-04 19:21 | 3.75557 | 8.71072 | 90 ft | 0 kts | 134° |
| 2026-05-04 19:21 | 3.75490 | 8.71063 | 89 ft | 23 kts | 220° |
| 2026-05-04 19:21 | 3.75340 | 8.70939 | 99 ft | 27 kts | 221° |
| 2026-05-04 19:21 | 3.75201 | 8.70816 | 106 ft | 26 kts | 222° |
| 2026-05-04 19:22 | 3.75058 | 8.70688 | 108 ft | 28 kts | 223° |
| 2026-05-04 19:22 | 3.74919 | 8.70563 | 113 ft | 21 kts | 221° |
| 2026-05-04 19:22 | 3.74825 | 8.70557 | 115 ft | 11 kts | 107° |
| 2026-05-04 19:22 | 3.74877 | 8.70629 | 116 ft | 20 kts | 45° |
| 2026-05-04 19:23 | 3.74940 | 8.70742 | 114 ft | 15 kts | 114° |
| 2026-05-04 19:23 | 3.74884 | 8.70767 | 118 ft | 4 kts | 212° |
| 2026-05-04 19:23 | 3.74876 | 8.70758 | 118 ft | 2 kts | 241° |
| 2026-05-04 19:23 | 3.74873 | 8.70715 | 118 ft | 5 kts | 292° |
| 2026-05-04 19:24 | 3.74879 | 8.70694 | 117 ft | 0 kts | 281° |